Time;durP1;ratioP1;P1;durP2;ratioP2;P2;SDS_P1;SDS_P2;PMS_P1;PMS_P2;Temp;Humidity;BMP_temperature;BMP_pressure;BME280_temperature;BME280_humidity;BME280_pressure;Samples;Min_cycle;Max_cycle;Signal;HPM_P1;HPM_P2
2021/12/21 00:00:46;;;;;;;10.97;5.30;;;-5.00;99.10;;;;;;2081219;28;20581;-69
2021/12/21 00:01:47;;;;;;;13.00;6.03;;;-5.00;99.20;;;;;;2080622;28;20452;-69
2021/12/21 00:02:51;;;;;;;13.87;5.77;;;-5.00;99.50;;;;;;2080653;28;20184;-69
2021/12/21 00:03:52;;;;;;;11.60;5.35;;;-5.00;99.60;;;;;;2080689;28;20234;-69
2021/12/21 00:04:53;;;;;;;10.93;5.17;;;-5.00;99.90;;;;;;2080714;28;20673;-69
2021/12/21 00:05:54;;;;;;;15.10;6.03;;;-5.00;99.80;;;;;;2081222;28;20177;-68
2021/12/21 00:06:55;;;;;;;10.32;5.22;;;-5.00;99.80;;;;;;2080641;28;20169;-69
2021/12/21 00:08:00;;;;;;;12.53;5.80;;;-5.00;99.90;;;;;;2080928;28;20204;-69
2021/12/21 00:09:01;;;;;;;13.52;6.10;;;-5.10;99.90;;;;;;2081179;28;20188;-69
2021/12/21 00:10:03;;;;;;;11.32;5.47;;;-5.10;99.90;;;;;;2080604;28;20184;-69
2021/12/21 00:11:03;;;;;;;15.88;5.88;;;-5.10;99.80;;;;;;2080852;28;20307;-68
2021/12/21 00:12:05;;;;;;;13.10;5.30;;;-5.10;99.90;;;;;;2081307;28;20595;-69
2021/12/21 00:13:22;;;;;;;10.80;5.25;;;-5.20;99.80;;;;;;2080612;28;20256;-69
2021/12/21 00:14:38;;;;;;;15.07;5.22;;;-5.20;99.70;;;;;;2080762;28;20187;-69
2021/12/21 00:17:01;;;;;;;10.43;4.97;;;-5.20;99.80;;;;;;2081256;28;20247;-69
2021/12/21 00:18:16;;;;;;;15.55;6.35;;;-5.20;99.60;;;;;;2080640;28;20182;-69
2021/12/21 00:24:34;;;;;;;12.18;5.38;;;-5.30;99.20;;;;;;2081121;28;20188;-67
2021/12/21 00:25:35;;;;;;;15.70;6.68;;;-5.30;99.20;;;;;;2081522;28;20244;-67
2021/12/21 00:26:36;;;;;;;15.47;5.77;;;-5.30;99.20;;;;;;2081412;28;20181;-67
2021/12/21 00:27:37;;;;;;;15.95;7.28;;;-5.30;99.40;;;;;;2082201;28;20269;-67
2021/12/21 00:28:59;;;;;;;16.00;6.90;;;-5.30;99.70;;;;;;2081974;28;20192;-66
2021/12/21 00:29:59;;;;;;;15.68;6.07;;;-5.30;99.70;;;;;;2074662;28;20165;-67
2021/12/21 00:31:00;;;;;;;14.63;6.30;;;-5.30;99.60;;;;;;2074545;28;20255;-67
2021/12/21 00:32:00;;;;;;;16.93;6.47;;;-5.30;99.70;;;;;;2074626;28;20641;-67
2021/12/21 00:33:01;;;;;;;12.83;5.47;;;-5.30;99.90;;;;;;2074558;28;20240;-67
2021/12/21 00:34:05;;;;;;;11.80;5.60;;;-5.30;99.90;;;;;;2074007;28;20232;-67
2021/12/21 00:35:07;;;;;;;12.68;5.68;;;-5.30;99.90;;;;;;2073788;28;20181;-67
2021/12/21 00:36:09;;;;;;;9.38;5.03;;;-5.30;99.90;;;;;;2074062;28;20212;-67
2021/12/21 00:37:10;;;;;;;13.45;6.72;;;-5.30;99.90;;;;;;2073877;28;20700;-67
2021/12/21 00:38:10;;;;;;;16.03;5.53;;;-5.30;99.90;;;;;;2074713;28;20193;-67
2021/12/21 00:39:14;;;;;;;19.13;6.43;;;-5.30;99.90;;;;;;2074527;28;20221;-67
2021/12/21 00:40:15;;;;;;;11.52;6.18;;;-5.30;99.90;;;;;;2074675;28;20185;-67
2021/12/21 00:41:17;;;;;;;11.43;5.60;;;-5.30;99.90;;;;;;2074571;28;20186;-67
2021/12/21 00:42:17;;;;;;;10.88;5.47;;;-5.30;99.90;;;;;;2074582;28;20204;-67
2021/12/21 00:43:18;;;;;;;16.37;6.13;;;-5.40;99.90;;;;;;2074521;28;20275;-67
2021/12/21 00:44:19;;;;;;;14.30;6.87;;;-5.40;99.80;;;;;;2074580;28;20261;-67
2021/12/21 00:45:20;;;;;;;11.60;5.90;;;-5.40;99.80;;;;;;2074277;28;20188;-66
2021/12/21 00:46:21;;;;;;;14.70;6.23;;;-5.40;99.70;;;;;;2074436;28;20185;-67
2021/12/21 00:47:21;;;;;;;15.13;5.82;;;-5.40;99.70;;;;;;2074414;28;20185;-67
2021/12/21 00:48:27;;;;;;;12.67;6.23;;;-5.40;99.70;;;;;;2074638;28;20204;-67
2021/12/21 00:49:29;;;;;;;11.52;6.00;;;-5.40;99.80;;;;;;2074443;28;20206;-67
2021/12/21 00:50:30;;;;;;;12.80;5.75;;;-5.40;99.80;;;;;;2074538;28;20268;-67
2021/12/21 00:51:31;;;;;;;11.40;5.55;;;-5.40;99.80;;;;;;2075040;28;20213;-67
2021/12/21 00:52:32;;;;;;;9.90;5.93;;;-5.40;99.70;;;;;;2080904;28;20200;-67
2021/12/21 00:53:36;;;;;;;11.87;5.60;;;-5.40;99.70;;;;;;2082607;28;20174;-67
2021/12/21 00:54:36;;;;;;;11.25;5.55;;;-5.40;99.70;;;;;;2082581;28;20185;-67
2021/12/21 00:55:37;;;;;;;14.93;6.17;;;-5.40;99.70;;;;;;2082509;28;20181;-67
2021/12/21 00:56:38;;;;;;;12.40;6.43;;;-5.40;99.90;;;;;;2081862;28;20746;-67
2021/12/21 00:57:40;;;;;;;16.85;6.53;;;-5.30;99.90;;;;;;2081913;28;20185;-67
2021/12/21 00:58:41;;;;;;;15.10;5.22;;;-5.30;99.90;;;;;;2082771;28;20177;-67
2021/12/21 00:59:41;;;;;;;12.67;5.63;;;-5.30;99.90;;;;;;2082532;28;20197;-67
2021/12/21 01:00:42;;;;;;;14.73;6.33;;;-5.30;99.90;;;;;;2082615;28;20644;-67
2021/12/21 01:01:43;;;;;;;12.13;5.50;;;-5.30;99.90;;;;;;2081920;28;20223;-67
2021/12/21 01:02:45;;;;;;;19.97;6.53;;;-5.30;99.90;;;;;;2082044;28;20654;-67
2021/12/21 01:03:50;;;;;;;13.75;5.35;;;-5.30;99.90;;;;;;2082620;28;20180;-67
2021/12/21 01:04:51;;;;;;;8.98;4.88;;;-5.30;99.90;;;;;;2081999;28;20172;-67
2021/12/21 01:06:00;;;;;;;10.48;4.82;;;-5.30;99.90;;;;;;2081936;28;20265;-67
2021/12/21 01:07:08;;;;;;;9.98;4.82;;;-5.30;99.90;;;;;;2082499;28;20219;-67
2021/12/21 01:08:14;;;;;;;8.63;4.47;;;-5.30;99.90;;;;;;2082548;28;20170;-67
2021/12/21 01:09:49;;;;;;;9.45;4.85;;;-5.30;99.90;;;;;;2082445;28;20197;-67
2021/12/21 01:12:04;;;;;;;10.20;4.13;;;-5.30;99.90;;;;;;2081943;28;20165;-67
2021/12/21 01:16:37;;;;;;;12.57;5.57;;;-5.50;99.90;;;;;;2082508;28;20185;-67
2021/12/21 01:19:21;;;;;;;9.35;4.88;;;-5.50;99.60;;;;;;2081157;28;20688;-67
2021/12/21 01:20:37;;;;;;;11.07;4.28;;;-5.50;99.60;;;;;;2082252;28;20193;-66
2021/12/21 01:21:42;;;;;;;8.35;4.35;;;-5.50;99.90;;;;;;2081765;28;20292;-67
2021/12/21 01:26:44;;;;;;;11.60;4.85;;;-5.60;99.40;;;;;;2082340;28;20566;-66
2021/12/21 01:28:59;;;;;;;8.85;3.95;;;-5.70;98.90;;;;;;2082178;28;20165;-66
2021/12/21 01:35:23;;;;;;;14.98;7.20;;;-5.70;99.20;;;;;;2082189;28;20533;-67
2021/12/21 01:36:44;;;;;;;18.05;7.40;;;-5.70;99.20;;;;;;2081661;28;20682;-67
2021/12/21 01:39:00;;;;;;;16.92;8.73;;;-5.80;99.00;;;;;;2081581;28;20694;-66
2021/12/21 01:40:19;;;;;;;13.60;6.28;;;-5.80;98.90;;;;;;2081724;28;20675;-67
2021/12/21 01:42:49;;;;;;;15.30;7.80;;;-5.80;98.90;;;;;;2082284;28;20177;-67
2021/12/21 01:44:05;;;;;;;18.02;7.20;;;-5.80;98.90;;;;;;2081555;28;20296;-66
2021/12/21 01:50:24;;;;;;;19.48;8.60;;;-5.90;99.60;;;;;;2082095;28;20633;-66
2021/12/21 01:51:25;;;;;;;16.07;7.40;;;-5.90;99.20;;;;;;2082014;28;20201;-67
2021/12/21 01:52:28;;;;;;;13.32;6.32;;;-5.90;99.70;;;;;;2082086;28;20488;-67
2021/12/21 01:53:29;;;;;;;20.60;8.82;;;-5.90;99.20;;;;;;2082021;28;20186;-67
2021/12/21 01:54:30;;;;;;;18.63;7.47;;;-5.90;99.20;;;;;;2081348;28;20579;-67
2021/12/21 01:55:30;;;;;;;18.30;8.10;;;-5.90;99.00;;;;;;2081487;28;20455;-67
2021/12/21 01:56:32;;;;;;;20.73;7.97;;;-5.90;98.90;;;;;;2082068;28;20169;-67
2021/12/21 01:57:33;;;;;;;19.35;7.93;;;-5.90;98.90;;;;;;2081972;28;20180;-67
2021/12/21 01:58:36;;;;;;;17.63;7.70;;;-5.90;99.00;;;;;;2073422;28;20181;-67
2021/12/21 01:59:39;;;;;;;11.57;6.70;;;-5.90;99.00;;;;;;2073560;28;20194;-67
2021/12/21 02:00:40;;;;;;;14.15;6.45;;;-5.90;99.00;;;;;;2073419;28;20182;-67
2021/12/21 02:01:41;;;;;;;12.55;6.22;;;-5.90;98.90;;;;;;2081329;28;20184;-67
2021/12/21 02:02:42;;;;;;;14.20;7.17;;;-5.90;98.90;;;;;;2081868;28;20187;-67
2021/12/21 02:03:47;;;;;;;15.10;6.83;;;-5.90;98.90;;;;;;2082000;28;20169;-66
2021/12/21 02:04:48;;;;;;;13.35;6.05;;;-5.90;98.90;;;;;;2081329;28;20169;-67
2021/12/21 02:05:48;;;;;;;16.47;6.83;;;-6.00;98.90;;;;;;2081317;28;20201;-67
2021/12/21 02:06:49;;;;;;;12.20;5.63;;;-5.90;99.10;;;;;;2081910;28;20170;-67
2021/12/21 02:07:50;;;;;;;9.10;5.20;;;-5.90;99.30;;;;;;2082045;28;20202;-67
2021/12/21 02:08:51;;;;;;;11.67;5.70;;;-5.90;99.40;;;;;;2081334;28;20205;-67
2021/12/21 02:09:52;;;;;;;11.45;5.35;;;-5.90;99.50;;;;;;2081403;28;20188;-67
2021/12/21 02:10:53;;;;;;;15.60;5.55;;;-5.90;99.50;;;;;;2081228;28;20205;-67
2021/12/21 02:11:54;;;;;;;15.70;6.23;;;-5.90;99.30;;;;;;2081436;28;20226;-67
2021/12/21 02:12:54;;;;;;;15.27;5.70;;;-5.90;99.20;;;;;;2081940;28;20176;-67
2021/12/21 02:13:56;;;;;;;9.80;5.40;;;-5.90;99.30;;;;;;2082102;28;20575;-67
2021/12/21 02:14:59;;;;;;;15.05;6.43;;;-5.90;99.30;;;;;;2081673;28;20187;-67
2021/12/21 02:16:00;;;;;;;10.38;5.10;;;-5.90;99.30;;;;;;2081907;28;20177;-67
2021/12/21 02:17:37;;;;;;;10.97;5.47;;;-5.90;99.10;;;;;;2081183;28;20251;-67
2021/12/21 02:18:47;;;;;;;13.05;4.10;;;-5.90;99.00;;;;;;2081428;28;20268;-67
2021/12/21 02:20:07;;;;;;;12.55;5.35;;;-5.90;98.80;;;;;;2081979;28;20160;-67
2021/12/21 02:21:28;;;;;;;12.90;4.85;;;-5.90;98.80;;;;;;2081226;28;20176;-67
2021/12/21 02:22:32;;;;;;;9.85;4.50;;;-6.00;98.70;;;;;;2081538;28;20182;-67
2021/12/21 02:23:37;;;;;;;9.75;3.85;;;-6.00;98.60;;;;;;2081736;28;20252;-67
2021/12/21 02:25:33;;;;;;;8.65;4.57;;;-6.00;98.50;;;;;;2081722;28;20187;-67
2021/12/21 02:27:41;;;;;;;11.48;4.25;;;-6.10;98.50;;;;;;2081541;28;20184;-66
2021/12/21 02:29:43;;;;;;;10.30;4.50;;;-6.10;98.60;;;;;;2073590;28;20189;-67
2021/12/21 02:30:51;;;;;;;13.83;5.87;;;-6.00;98.80;;;;;;2073588;28;20645;-67
2021/12/21 02:31:53;;;;;;;12.00;5.88;;;-6.00;98.90;;;;;;2072957;28;20217;-67
2021/12/21 02:32:53;;;;;;;7.97;4.15;;;-6.00;98.80;;;;;;2065591;28;20609;-67
2021/12/21 02:33:55;;;;;;;16.90;4.47;;;-6.00;98.80;;;;;;2073078;28;20215;-67
2021/12/21 02:34:55;;;;;;;12.00;4.97;;;-6.00;99.00;;;;;;2072907;28;20695;-67
2021/12/21 02:35:57;;;;;;;9.37;4.67;;;-6.00;98.90;;;;;;2073025;28;20197;-67
2021/12/21 02:36:58;;;;;;;11.30;4.75;;;-6.00;99.00;;;;;;2073586;28;20182;-67
2021/12/21 02:37:58;;;;;;;12.07;4.70;;;-6.00;99.10;;;;;;2073520;28;20272;-67
2021/12/21 02:39:00;;;;;;;10.67;5.50;;;-6.00;99.00;;;;;;2073525;28;20178;-67
2021/12/21 02:40:01;;;;;;;11.25;5.22;;;-6.10;98.70;;;;;;2072842;28;20221;-67
2021/12/21 02:41:02;;;;;;;15.93;5.87;;;-6.10;99.10;;;;;;2073046;28;20383;-67
2021/12/21 02:42:04;;;;;;;16.23;6.30;;;-6.10;98.60;;;;;;2073047;28;20186;-66
2021/12/21 02:43:06;;;;;;;14.38;6.60;;;-6.20;98.50;;;;;;2064959;28;20753;-67
2021/12/21 02:44:07;;;;;;;16.52;6.65;;;-6.20;98.30;;;;;;2064806;28;20190;-67
2021/12/21 02:45:08;;;;;;;12.07;6.27;;;-6.20;98.00;;;;;;2073309;28;20186;-67
2021/12/21 02:46:09;;;;;;;14.23;6.53;;;-6.20;97.80;;;;;;2079382;28;20655;-67
2021/12/21 02:47:10;;;;;;;15.02;6.13;;;-6.30;97.60;;;;;;2081551;28;20836;-67
2021/12/21 02:48:11;;;;;;;16.27;5.20;;;-6.30;97.50;;;;;;2081526;28;20182;-67
2021/12/21 02:49:12;;;;;;;14.18;5.30;;;-6.30;97.50;;;;;;2081394;28;20216;-67
2021/12/21 02:50:13;;;;;;;10.23;5.22;;;-6.40;97.70;;;;;;2080788;28;20276;-67
2021/12/21 02:51:14;;;;;;;10.13;5.10;;;-6.40;98.00;;;;;;2080887;28;20641;-67
2021/12/21 02:52:15;;;;;;;14.60;6.30;;;-6.40;98.20;;;;;;2081603;28;20208;-67
2021/12/21 02:53:15;;;;;;;13.93;6.90;;;-6.40;98.40;;;;;;2081572;28;20173;-67
2021/12/21 02:54:19;;;;;;;17.03;6.43;;;-6.40;98.40;;;;;;2081588;28;20177;-66
2021/12/21 02:55:19;;;;;;;19.15;7.47;;;-6.40;98.40;;;;;;2080812;28;20268;-67
2021/12/21 02:56:20;;;;;;;12.97;5.73;;;-6.40;98.40;;;;;;2072839;28;20199;-67
2021/12/21 02:57:21;;;;;;;9.30;5.10;;;-6.40;98.40;;;;;;2080911;28;20292;-66
2021/12/21 02:58:22;;;;;;;12.57;6.10;;;-6.40;98.40;;;;;;2080905;28;20593;-66
2021/12/21 02:59:22;;;;;;;7.77;4.53;;;-6.40;98.30;;;;;;2080777;28;20201;-67
2021/12/21 03:00:28;;;;;;;9.93;4.77;;;-6.40;98.30;;;;;;2081633;28;20552;-67
2021/12/21 03:01:30;;;;;;;8.82;4.05;;;-6.30;98.40;;;;;;2080891;28;20694;-67
2021/12/21 03:02:31;;;;;;;12.18;4.70;;;-6.30;98.60;;;;;;2072816;28;20186;-66
2021/12/21 03:03:33;;;;;;;8.05;4.60;;;-6.30;98.70;;;;;;2072885;28;20557;-67
2021/12/21 03:04:33;;;;;;;16.75;4.40;;;-6.40;98.60;;;;;;2080861;28;20650;-66
2021/12/21 03:05:37;;;;;;;9.60;4.53;;;-6.40;98.50;;;;;;2081500;28;20184;-66
2021/12/21 03:08:58;;;;;;;9.50;4.22;;;-6.40;98.30;;;;;;2081497;28;20188;-66
2021/12/21 03:10:01;;;;;;;9.60;5.38;;;-6.30;98.40;;;;;;2081478;28;20248;-66
2021/12/21 03:11:21;;;;;;;8.25;4.35;;;-6.30;98.20;;;;;;2081465;28;20243;-67
2021/12/21 03:14:44;;;;;;;10.35;3.60;;;-6.40;98.20;;;;;;2081341;28;20176;-66
2021/12/21 03:15:45;;;;;;;18.77;4.60;;;-6.40;98.30;;;;;;2081520;28;20170;-67
2021/12/21 03:16:45;;;;;;;7.60;4.33;;;-6.30;98.20;;;;;;2080850;28;20200;-67
2021/12/21 03:17:46;;;;;;;9.33;4.27;;;-6.40;98.40;;;;;;2080837;28;20174;-67
2021/12/21 03:18:47;;;;;;;10.03;3.87;;;-6.40;98.40;;;;;;2081441;28;20652;-67
2021/12/21 03:19:48;;;;;;;9.90;3.63;;;-6.30;98.60;;;;;;2080895;28;20181;-67
2021/12/21 03:20:48;;;;;;;8.10;4.13;;;-6.40;98.60;;;;;;2080777;28;20177;-67
2021/12/21 03:21:49;;;;;;;9.60;3.87;;;-6.40;98.50;;;;;;2081379;28;20173;-67
2021/12/21 03:22:50;;;;;;;9.27;4.47;;;-6.30;98.50;;;;;;2081417;28;20169;-67
2021/12/21 03:23:51;;;;;;;9.30;4.55;;;-6.30;98.40;;;;;;2081410;28;20226;-67
2021/12/21 03:24:52;;;;;;;10.90;5.17;;;-6.40;98.30;;;;;;2081270;28;20597;-67
2021/12/21 03:25:52;;;;;;;11.50;4.73;;;-6.40;98.10;;;;;;2081293;28;20180;-67
2021/12/21 03:26:53;;;;;;;9.40;4.73;;;-6.40;98.10;;;;;;2081338;28;20185;-67
2021/12/21 03:27:53;;;;;;;8.03;4.53;;;-6.50;97.90;;;;;;2081402;28;20191;-67
2021/12/21 03:28:54;;;;;;;9.10;4.30;;;-6.50;97.80;;;;;;2080166;28;20676;-67
2021/12/21 03:29:55;;;;;;;7.43;4.47;;;-6.50;97.80;;;;;;2080742;28;20199;-67
2021/12/21 03:30:56;;;;;;;7.60;3.90;;;-6.50;97.80;;;;;;2081252;28;20173;-67
2021/12/21 03:31:58;;;;;;;9.00;4.27;;;-6.50;97.90;;;;;;2081333;28;20177;-67
2021/12/21 03:32:58;;;;;;;9.77;4.70;;;-6.50;97.90;;;;;;2081431;28;20173;-66
2021/12/21 03:33:59;;;;;;;11.37;4.60;;;-6.50;97.90;;;;;;2081322;28;20181;-66
2021/12/21 03:35:00;;;;;;;11.50;4.60;;;-6.50;97.70;;;;;;2081217;28;20798;-67
2021/12/21 03:36:02;;;;;;;8.50;5.13;;;-6.50;97.80;;;;;;2080609;28;20184;-67
2021/12/21 03:37:10;;;;;;;8.73;4.05;;;-6.50;98.00;;;;;;2072608;28;20943;-67
2021/12/21 03:38:12;;;;;;;11.80;4.55;;;-6.50;98.10;;;;;;2080735;28;20169;-67
2021/12/21 03:39:18;;;;;;;11.73;4.70;;;-6.50;98.30;;;;;;2081337;28;20233;-67
2021/12/21 03:40:19;;;;;;;9.80;5.40;;;-6.50;98.30;;;;;;2080704;28;20168;-66
2021/12/21 03:41:20;;;;;;;10.17;5.73;;;-6.50;98.30;;;;;;2080634;28;20548;-67
2021/12/21 03:42:23;;;;;;;15.48;6.95;;;-6.50;98.30;;;;;;2080610;28;20754;-67
2021/12/21 03:43:24;;;;;;;23.25;9.98;;;-6.60;98.30;;;;;;2080790;28;20330;-67
2021/12/21 03:44:27;;;;;;;20.93;9.33;;;-6.60;98.30;;;;;;2081344;28;20172;-67
2021/12/21 03:45:31;;;;;;;22.98;10.50;;;-6.60;98.20;;;;;;2080632;28;20192;-67
2021/12/21 03:46:32;;;;;;;21.98;8.40;;;-6.60;98.20;;;;;;2080627;28;20193;-67
2021/12/21 03:47:33;;;;;;;20.87;9.10;;;-6.60;98.40;;;;;;2081170;28;20594;-67
2021/12/21 03:48:34;;;;;;;18.23;8.63;;;-6.60;98.40;;;;;;2080650;28;20186;-67
2021/12/21 03:50:46;;;;;;;16.13;6.82;;;-6.60;98.20;;;;;;2080765;28;20798;-67
2021/12/21 03:51:47;;;;;;;13.50;6.67;;;-6.70;98.00;;;;;;2081251;28;20231;-66
2021/12/21 03:52:48;;;;;;;12.47;6.30;;;-6.70;97.90;;;;;;2081110;28;20186;-66
2021/12/21 03:53:51;;;;;;;9.23;4.50;;;-6.60;98.00;;;;;;2081310;28;20638;-67
2021/12/21 03:54:58;;;;;;;15.13;5.47;;;-6.60;98.10;;;;;;2081098;28;20827;-67
2021/12/21 03:57:19;;;;;;;12.00;4.57;;;-6.60;98.30;;;;;;2081264;28;20188;-67
2021/12/21 03:58:20;;;;;;;8.93;4.75;;;-6.60;98.60;;;;;;2081199;28;20181;-67
2021/12/21 03:59:21;;;;;;;15.90;5.57;;;-6.60;98.80;;;;;;2081128;28;20612;-66
2021/12/21 04:00:23;;;;;;;10.23;5.90;;;-6.60;98.50;;;;;;2080565;28;20652;-67
2021/12/21 04:01:24;;;;;;;13.30;6.57;;;-6.60;98.40;;;;;;2072532;28;20280;-67
2021/12/21 04:02:26;;;;;;;15.60;6.80;;;-6.60;98.40;;;;;;2082048;28;20211;-67
2021/12/21 04:03:27;;;;;;;12.15;6.90;;;-6.70;98.00;;;;;;2082240;28;20573;-66
2021/12/21 04:04:27;;;;;;;10.73;5.43;;;-6.70;97.90;;;;;;2082335;28;20243;-67
2021/12/21 04:05:28;;;;;;;13.57;5.87;;;-6.70;97.80;;;;;;2082759;28;20191;-67
2021/12/21 04:06:29;;;;;;;14.70;6.43;;;-6.70;97.60;;;;;;2082859;28;20238;-67
2021/12/21 04:07:29;;;;;;;13.90;7.23;;;-6.70;97.50;;;;;;2082753;28;20184;-67
2021/12/21 04:08:30;;;;;;;13.70;6.40;;;-6.80;97.30;;;;;;2082897;28;20657;-67
2021/12/21 04:09:31;;;;;;;9.87;5.50;;;-6.80;97.70;;;;;;2082071;28;20197;-66
2021/12/21 04:10:32;;;;;;;12.55;5.63;;;-6.90;97.10;;;;;;2074139;28;20203;-67
2021/12/21 04:11:33;;;;;;;9.60;4.90;;;-6.90;96.90;;;;;;2082336;28;20205;-67
2021/12/21 04:12:34;;;;;;;9.88;5.03;;;-6.90;96.80;;;;;;2083005;28;20177;-67
2021/12/21 04:13:35;;;;;;;12.40;5.03;;;-7.00;96.70;;;;;;2082879;28;20181;-66
2021/12/21 04:14:36;;;;;;;9.50;5.07;;;-7.00;96.50;;;;;;2082950;28;20187;-67
2021/12/21 04:15:44;;;;;;;12.50;5.80;;;-7.00;96.60;;;;;;2082164;28;20218;-67
2021/12/21 04:16:44;;;;;;;9.50;4.88;;;-7.00;96.60;;;;;;2075030;28;20157;-67
2021/12/21 04:17:45;;;;;;;12.63;5.53;;;-7.10;96.60;;;;;;2082358;28;20169;-67
2021/12/21 04:18:46;;;;;;;16.07;5.40;;;-7.10;96.60;;;;;;2082895;28;20176;-66
2021/12/21 04:19:47;;;;;;;13.93;5.00;;;-7.10;96.90;;;;;;2082946;28;20647;-66
2021/12/21 04:20:48;;;;;;;8.77;4.93;;;-7.10;97.10;;;;;;2083081;28;20179;-66
2021/12/21 04:21:48;;;;;;;10.23;5.20;;;-7.10;97.30;;;;;;2082924;28;20458;-66
2021/12/21 04:22:49;;;;;;;12.30;5.93;;;-7.10;97.70;;;;;;2082880;28;20611;-67
2021/12/21 04:23:50;;;;;;;8.23;4.20;;;-7.10;98.60;;;;;;2082752;28;20733;-67
2021/12/21 04:24:51;;;;;;;14.30;5.63;;;-7.10;98.20;;;;;;2082041;28;20210;-66
2021/12/21 04:25:51;;;;;;;12.97;6.10;;;-7.10;98.30;;;;;;2073723;28;20213;-67
2021/12/21 04:26:52;;;;;;;17.70;5.40;;;-7.10;98.40;;;;;;2073933;28;20688;-67
2021/12/21 04:27:53;;;;;;;15.03;5.83;;;-7.10;98.40;;;;;;2074742;28;20181;-67
2021/12/21 04:28:54;;;;;;;15.73;7.10;;;-7.00;98.40;;;;;;2074493;28;20176;-67
2021/12/21 04:29:54;;;;;;;10.63;5.80;;;-7.10;98.50;;;;;;2074609;28;20263;-67
2021/12/21 04:30:55;;;;;;;12.93;6.30;;;-7.10;98.30;;;;;;2073855;28;20186;-67
2021/12/21 04:31:56;;;;;;;13.57;5.83;;;-7.10;98.60;;;;;;2073971;28;20261;-67
2021/12/21 04:32:56;;;;;;;12.43;5.83;;;-7.10;98.10;;;;;;2074445;28;20231;-67
2021/12/21 04:33:58;;;;;;;9.07;5.13;;;-7.10;97.90;;;;;;2073958;28;20189;-67
2021/12/21 04:34:59;;;;;;;11.85;6.13;;;-7.10;97.80;;;;;;2073646;28;20182;-67
2021/12/21 04:36:02;;;;;;;8.93;4.47;;;-7.10;97.70;;;;;;2074592;28;20188;-67
2021/12/21 04:37:03;;;;;;;12.20;5.32;;;-7.10;97.70;;;;;;2074385;28;20244;-67
2021/12/21 04:38:24;;;;;;;11.55;5.28;;;-7.10;97.80;;;;;;2074522;28;20647;-67
2021/12/21 04:40:45;;;;;;;12.52;4.90;;;-7.10;98.40;;;;;;2074101;28;20187;-66
2021/12/21 04:41:46;;;;;;;13.32;5.32;;;-7.10;99.10;;;;;;2074512;28;20629;-67
2021/12/21 04:42:46;;;;;;;10.90;5.50;;;-7.00;99.00;;;;;;2074448;28;20186;-67
2021/12/21 04:43:47;;;;;;;9.23;4.70;;;-7.00;99.20;;;;;;2074520;28;20173;-66
2021/12/21 04:44:48;;;;;;;13.53;6.00;;;-7.00;99.30;;;;;;2074197;28;20247;-67
2021/12/21 04:45:49;;;;;;;12.70;6.57;;;-7.00;99.10;;;;;;2074856;28;20648;-66
2021/12/21 04:46:50;;;;;;;15.57;7.18;;;-7.00;99.00;;;;;;2075577;28;20186;-66
2021/12/21 04:47:50;;;;;;;11.20;5.80;;;-7.00;99.00;;;;;;2073877;28;20760;-67
2021/12/21 04:48:52;;;;;;;11.83;5.93;;;-7.00;99.00;;;;;;2074353;28;20177;-66
2021/12/21 04:49:54;;;;;;;16.27;5.70;;;-7.00;99.10;;;;;;2074459;28;20178;-67
2021/12/21 04:50:55;;;;;;;10.38;5.70;;;-6.90;99.20;;;;;;2074185;28;20652;-67
2021/12/21 04:51:55;;;;;;;11.50;6.03;;;-6.90;99.20;;;;;;2074478;28;20181;-66
2021/12/21 04:52:56;;;;;;;12.10;6.20;;;-6.90;99.20;;;;;;2074403;28;20184;-67
2021/12/21 04:53:57;;;;;;;11.93;6.13;;;-6.90;99.20;;;;;;2073814;28;20189;-67
2021/12/21 04:54:58;;;;;;;11.52;6.38;;;-6.90;99.30;;;;;;2073790;28;20649;-66
2021/12/21 04:55:59;;;;;;;11.57;5.60;;;-6.90;99.30;;;;;;2074300;28;20195;-67
2021/12/21 04:56:59;;;;;;;8.87;5.70;;;-6.90;99.30;;;;;;2073524;28;20565;-66
2021/12/21 04:58:00;;;;;;;8.57;5.73;;;-6.90;99.30;;;;;;2073766;28;20185;-67
2021/12/21 04:59:01;;;;;;;13.98;5.72;;;-6.90;99.20;;;;;;2074333;28;20569;-67
2021/12/21 05:00:05;;;;;;;13.63;5.97;;;-6.90;99.00;;;;;;2074295;28;20221;-67
2021/12/21 05:01:06;;;;;;;12.23;6.47;;;-7.00;98.80;;;;;;2073730;28;20209;-66
2021/12/21 05:02:06;;;;;;;11.07;5.77;;;-7.00;98.50;;;;;;2073478;28;20671;-66
2021/12/21 05:03:07;;;;;;;11.20;6.10;;;-6.90;98.50;;;;;;2074140;28;20242;-67
2021/12/21 05:04:08;;;;;;;14.47;6.97;;;-6.90;98.60;;;;;;2074280;28;20653;-66
2021/12/21 05:05:09;;;;;;;11.10;5.83;;;-7.00;98.40;;;;;;2073593;28;20432;-67
2021/12/21 05:06:10;;;;;;;11.32;5.60;;;-7.00;98.40;;;;;;2073534;28;20254;-67
2021/12/21 05:07:12;;;;;;;10.50;5.87;;;-7.00;98.30;;;;;;2074296;28;20196;-66
2021/12/21 05:08:23;;;;;;;11.65;5.18;;;-7.00;98.20;;;;;;2073694;28;20176;-66
2021/12/21 05:09:25;;;;;;;13.27;4.88;;;-7.00;98.00;;;;;;2073740;28;20223;-67
2021/12/21 05:10:25;;;;;;;12.27;5.82;;;-7.00;97.90;;;;;;2073712;28;20181;-67
2021/12/21 05:11:32;;;;;;;13.40;6.37;;;-7.10;98.00;;;;;;2074162;28;20432;-66
2021/12/21 05:12:33;;;;;;;13.75;5.82;;;-7.10;98.10;;;;;;2073711;28;20178;-67
2021/12/21 05:13:38;;;;;;;11.27;5.57;;;-7.10;98.00;;;;;;2074369;28;20192;-66
2021/12/21 05:14:39;;;;;;;12.43;6.22;;;-7.10;97.70;;;;;;2073501;28;20288;-67
2021/12/21 05:15:40;;;;;;;10.10;5.90;;;-7.10;97.50;;;;;;2073631;28;20260;-67
2021/12/21 05:16:41;;;;;;;11.98;6.18;;;-7.10;97.40;;;;;;2074175;28;20176;-66
2021/12/21 05:17:42;;;;;;;14.30;6.67;;;-7.10;97.30;;;;;;2074090;28;20692;-66
2021/12/21 05:18:42;;;;;;;13.90;6.37;;;-7.20;97.20;;;;;;2074187;28;20236;-67
2021/12/21 05:19:43;;;;;;;10.30;5.63;;;-7.20;97.20;;;;;;2074133;28;20219;-66
2021/12/21 05:20:44;;;;;;;10.37;5.23;;;-7.20;97.30;;;;;;2074208;28;20170;-66
2021/12/21 05:21:45;;;;;;;12.98;5.65;;;-7.20;97.40;;;;;;2074389;28;20189;-66
2021/12/21 05:22:48;;;;;;;13.23;6.50;;;-7.20;97.50;;;;;;2074245;28;20188;-66
2021/12/21 05:23:49;;;;;;;10.48;5.47;;;-7.20;97.70;;;;;;2074187;28;20227;-67
2021/12/21 05:24:51;;;;;;;9.37;5.03;;;-7.20;98.00;;;;;;2073385;28;20193;-67
2021/12/21 05:25:51;;;;;;;13.93;6.35;;;-7.20;98.10;;;;;;2073656;28;20192;-67
2021/12/21 05:26:52;;;;;;;14.53;5.87;;;-7.20;98.30;;;;;;2074007;28;20657;-67
2021/12/21 05:27:53;;;;;;;12.73;6.43;;;-7.20;98.40;;;;;;2074139;28;20185;-67
2021/12/21 05:28:54;;;;;;;15.47;6.30;;;-7.20;98.30;;;;;;2073463;28;20185;-67
2021/12/21 05:29:54;;;;;;;9.40;5.18;;;-7.20;98.20;;;;;;2073684;28;20243;-67
2021/12/21 05:30:55;;;;;;;11.87;5.27;;;-7.20;98.20;;;;;;2074034;28;20606;-67
2021/12/21 05:31:58;;;;;;;14.63;6.90;;;-7.20;98.20;;;;;;2074190;28;20184;-66
2021/12/21 05:32:58;;;;;;;10.68;6.13;;;-7.20;98.20;;;;;;2073419;28;20240;-66
2021/12/21 05:33:59;;;;;;;11.23;6.10;;;-7.20;98.60;;;;;;2073496;28;20268;-67
2021/12/21 05:35:00;;;;;;;16.07;6.97;;;-7.20;98.50;;;;;;2073922;28;20178;-66
2021/12/21 05:36:00;;;;;;;13.87;6.50;;;-7.20;98.40;;;;;;2073465;28;20218;-66
2021/12/21 05:37:05;;;;;;;12.47;6.80;;;-7.20;98.70;;;;;;2073426;28;20186;-67
2021/12/21 05:38:08;;;;;;;15.38;6.65;;;-7.20;97.90;;;;;;2073617;28;20168;-67
2021/12/21 05:39:18;;;;;;;15.93;6.53;;;-7.30;97.50;;;;;;2073411;28;20208;-66
2021/12/21 05:40:19;;;;;;;13.35;6.53;;;-7.30;97.40;;;;;;2074033;28;20248;-66
2021/12/21 05:41:55;;;;;;;12.32;6.40;;;-7.30;97.30;;;;;;2073290;28;20200;-67
2021/12/21 05:42:48;;;;;;;10.27;5.30;;;-7.40;97.20;;;;;;2066808;28;20679;-67
2021/12/21 05:43:50;;;;;;;16.33;5.85;;;-7.40;97.00;;;;;;2070847;28;20200;-67
2021/12/21 05:44:51;;;;;;;12.90;6.13;;;-7.40;97.00;;;;;;2077234;28;20184;-67
2021/12/21 05:45:52;;;;;;;11.13;5.97;;;-7.40;97.10;;;;;;2074071;28;20687;-66
2021/12/21 05:46:55;;;;;;;13.03;6.10;;;-7.40;97.20;;;;;;2074086;28;20190;-66
2021/12/21 05:47:55;;;;;;;16.80;7.50;;;-7.40;97.00;;;;;;2073431;28;20181;-66
2021/12/21 05:48:56;;;;;;;14.20;7.20;;;-7.40;97.00;;;;;;2073433;28;20185;-66
2021/12/21 05:49:57;;;;;;;15.57;7.83;;;-7.40;97.00;;;;;;2073319;28;20192;-66
2021/12/21 05:50:57;;;;;;;21.20;7.30;;;-7.40;97.00;;;;;;2073876;28;20220;-66
2021/12/21 05:51:58;;;;;;;16.80;7.83;;;-7.40;97.10;;;;;;2073909;28;20181;-66
2021/12/21 05:52:59;;;;;;;13.10;7.83;;;-7.40;97.50;;;;;;2073994;28;20311;-66
2021/12/21 05:54:00;;;;;;;18.80;8.13;;;-7.40;97.80;;;;;;2073845;28;20183;-66
2021/12/21 05:55:02;;;;;;;14.57;6.78;;;-7.40;98.00;;;;;;2073751;28;20174;-66
2021/12/21 05:56:02;;;;;;;10.93;5.85;;;-7.40;98.20;;;;;;2073829;28;20188;-66
2021/12/21 05:57:04;;;;;;;15.63;7.37;;;-7.40;98.30;;;;;;2073937;28;20266;-66
2021/12/21 05:58:04;;;;;;;11.60;5.70;;;-7.30;98.40;;;;;;2065118;28;20212;-66
2021/12/21 05:59:05;;;;;;;12.10;5.50;;;-7.30;98.10;;;;;;2065248;28;20201;-66
2021/12/21 06:00:12;;;;;;;16.30;7.03;;;-7.30;97.90;;;;;;2073288;28;20218;-66
2021/12/21 06:01:12;;;;;;;18.48;7.30;;;-7.30;97.90;;;;;;2073241;28;20180;-67
2021/12/21 06:02:13;;;;;;;19.40;7.23;;;-7.30;98.00;;;;;;2073813;28;20180;-66
2021/12/21 06:03:14;;;;;;;12.30;6.90;;;-7.30;98.00;;;;;;2073777;28;20432;-66
2021/12/21 06:04:14;;;;;;;20.97;7.93;;;-7.30;98.20;;;;;;2073834;28;20196;-66
2021/12/21 06:05:15;;;;;;;11.77;7.27;;;-7.30;98.10;;;;;;2073766;28;20203;-67